sensor_id;sensor_type;location;lat;lon;timestamp;temperature;humidity
23568;DHT22;11962;50.838;4.430;2022-11-15T00:01:09;13.60;99.90
23568;DHT22;11962;50.838;4.430;2022-11-15T00:03:38;13.70;99.90
23568;DHT22;11962;50.838;4.430;2022-11-15T00:06:04;13.60;99.90
23568;DHT22;11962;50.838;4.430;2022-11-15T00:08:32;13.60;99.90
23568;DHT22;11962;50.838;4.430;2022-11-15T00:11:00;13.60;99.90
23568;DHT22;11962;50.838;4.430;2022-11-15T00:13:26;13.70;99.90
23568;DHT22;11962;50.838;4.430;2022-11-15T00:15:52;13.80;99.90
23568;DHT22;11962;50.838;4.430;2022-11-15T00:18:18;13.70;99.90
23568;DHT22;11962;50.838;4.430;2022-11-15T00:20:44;13.80;99.90
23568;DHT22;11962;50.838;4.430;2022-11-15T00:23:10;13.80;99.90
23568;DHT22;11962;50.838;4.430;2022-11-15T00:25:35;13.80;99.90
23568;DHT22;11962;50.838;4.430;2022-11-15T00:28:02;13.80;99.90
23568;DHT22;11962;50.838;4.430;2022-11-15T00:30:28;13.80;99.90
23568;DHT22;11962;50.838;4.430;2022-11-15T00:32:54;13.80;99.90
23568;DHT22;11962;50.838;4.430;2022-11-15T00:35:20;13.80;99.90
23568;DHT22;11962;50.838;4.430;2022-11-15T00:37:46;13.90;99.90
23568;DHT22;11962;50.838;4.430;2022-11-15T00:40:14;13.80;99.90
23568;DHT22;11962;50.838;4.430;2022-11-15T00:42:40;13.80;99.90
23568;DHT22;11962;50.838;4.430;2022-11-15T00:45:06;13.80;99.90
23568;DHT22;11962;50.838;4.430;2022-11-15T00:47:32;13.80;99.90
23568;DHT22;11962;50.838;4.430;2022-11-15T00:49:58;13.90;99.90
23568;DHT22;11962;50.838;4.430;2022-11-15T00:52:24;13.90;99.90
23568;DHT22;11962;50.838;4.430;2022-11-15T00:54:49;13.90;99.90
23568;DHT22;11962;50.838;4.430;2022-11-15T00:57:15;13.80;99.90
23568;DHT22;11962;50.838;4.430;2022-11-15T00:59:41;14.00;99.90
23568;DHT22;11962;50.838;4.430;2022-11-15T01:02:06;13.80;99.90
23568;DHT22;11962;50.838;4.430;2022-11-15T01:04:32;13.90;99.90
23568;DHT22;11962;50.838;4.430;2022-11-15T01:06:57;13.90;99.90
23568;DHT22;11962;50.838;4.430;2022-11-15T01:09:23;13.90;99.90
23568;DHT22;11962;50.838;4.430;2022-11-15T01:11:49;14.00;99.90
23568;DHT22;11962;50.838;4.430;2022-11-15T01:14:14;13.90;99.90
23568;DHT22;11962;50.838;4.430;2022-11-15T01:16:40;13.90;99.90
23568;DHT22;11962;50.838;4.430;2022-11-15T01:19:06;14.00;99.90
23568;DHT22;11962;50.838;4.430;2022-11-15T01:21:32;14.00;99.90
23568;DHT22;11962;50.838;4.430;2022-11-15T01:23:57;14.00;99.90
23568;DHT22;11962;50.838;4.430;2022-11-15T01:26:24;14.00;99.90
23568;DHT22;11962;50.838;4.430;2022-11-15T01:28:50;14.10;99.90
23568;DHT22;11962;50.838;4.430;2022-11-15T01:31:19;14.00;99.90
23568;DHT22;11962;50.838;4.430;2022-11-15T01:33:45;14.00;99.90
23568;DHT22;11962;50.838;4.430;2022-11-15T01:36:16;14.00;99.90
23568;DHT22;11962;50.838;4.430;2022-11-15T01:38:42;13.90;99.90
23568;DHT22;11962;50.838;4.430;2022-11-15T01:41:20;13.90;99.90
23568;DHT22;11962;50.838;4.430;2022-11-15T01:43:49;13.90;99.90
23568;DHT22;11962;50.838;4.430;2022-11-15T01:46:33;13.90;99.90
23568;DHT22;11962;50.838;4.430;2022-11-15T01:49:03;13.90;99.90
23568;DHT22;11962;50.838;4.430;2022-11-15T01:51:32;13.90;99.90
23568;DHT22;11962;50.838;4.430;2022-11-15T01:54:02;14.00;99.90
23568;DHT22;11962;50.838;4.430;2022-11-15T01:56:32;14.10;99.90
23568;DHT22;11962;50.838;4.430;2022-11-15T01:59:01;14.00;99.90
23568;DHT22;11962;50.838;4.430;2022-11-15T02:01:28;14.00;99.90
23568;DHT22;11962;50.838;4.430;2022-11-15T02:04:03;13.90;99.90
23568;DHT22;11962;50.838;4.430;2022-11-15T02:06:32;14.00;99.90
23568;DHT22;11962;50.838;4.430;2022-11-15T02:08:59;14.00;99.90
23568;DHT22;11962;50.838;4.430;2022-11-15T02:11:25;14.00;99.90
23568;DHT22;11962;50.838;4.430;2022-11-15T02:13:51;14.10;99.90
23568;DHT22;11962;50.838;4.430;2022-11-15T02:28:06;14.00;99.90
23568;DHT22;11962;50.838;4.430;2022-11-15T02:30:44;14.00;99.90
23568;DHT22;11962;50.838;4.430;2022-11-15T02:33:37;14.00;99.90
23568;DHT22;11962;50.838;4.430;2022-11-15T02:36:16;14.00;99.90
23568;DHT22;11962;50.838;4.430;2022-11-15T02:39:06;14.00;99.90
23568;DHT22;11962;50.838;4.430;2022-11-15T02:42:07;14.00;99.90
23568;DHT22;11962;50.838;4.430;2022-11-15T02:44:56;13.90;99.90
23568;DHT22;11962;50.838;4.430;2022-11-15T02:47:24;13.90;99.90
23568;DHT22;11962;50.838;4.430;2022-11-15T02:49:58;13.90;99.90
23568;DHT22;11962;50.838;4.430;2022-11-15T02:52:24;13.90;99.90
23568;DHT22;11962;50.838;4.430;2022-11-15T02:55:02;13.90;99.90
23568;DHT22;11962;50.838;4.430;2022-11-15T02:57:42;13.90;99.90
23568;DHT22;11962;50.838;4.430;2022-11-15T03:00:14;13.90;99.90
23568;DHT22;11962;50.838;4.430;2022-11-15T03:05:57;13.90;99.90
23568;DHT22;11962;50.838;4.430;2022-11-15T03:08:37;14.00;99.90
23568;DHT22;11962;50.838;4.430;2022-11-15T03:11:14;13.90;99.90
23568;DHT22;11962;50.838;4.430;2022-11-15T03:17:02;13.90;99.90
23568;DHT22;11962;50.838;4.430;2022-11-15T03:19:38;13.90;99.90
23568;DHT22;11962;50.838;4.430;2022-11-15T03:22:08;13.90;99.90
23568;DHT22;11962;50.838;4.430;2022-11-15T03:24:36;13.80;99.90
23568;DHT22;11962;50.838;4.430;2022-11-15T03:27:05;13.90;99.90
23568;DHT22;11962;50.838;4.430;2022-11-15T03:29:35;13.90;99.90
23568;DHT22;11962;50.838;4.430;2022-11-15T03:32:40;13.90;99.90
23568;DHT22;11962;50.838;4.430;2022-11-15T03:34:58;13.90;99.90
23568;DHT22;11962;50.838;4.430;2022-11-15T03:40:05;13.90;99.90
23568;DHT22;11962;50.838;4.430;2022-11-15T03:42:43;13.80;99.90
23568;DHT22;11962;50.838;4.430;2022-11-15T03:45:22;13.80;99.90
23568;DHT22;11962;50.838;4.430;2022-11-15T03:47:53;13.80;99.90
23568;DHT22;11962;50.838;4.430;2022-11-15T03:50:21;13.80;99.90
23568;DHT22;11962;50.838;4.430;2022-11-15T03:52:48;13.80;99.90
23568;DHT22;11962;50.838;4.430;2022-11-15T03:55:19;13.70;99.90
23568;DHT22;11962;50.838;4.430;2022-11-15T03:57:48;13.70;99.90
23568;DHT22;11962;50.838;4.430;2022-11-15T04:00:15;13.70;99.90
23568;DHT22;11962;50.838;4.430;2022-11-15T04:02:40;13.70;99.90
23568;DHT22;11962;50.838;4.430;2022-11-15T04:05:06;13.70;99.90
23568;DHT22;11962;50.838;4.430;2022-11-15T04:07:32;13.70;99.90
23568;DHT22;11962;50.838;4.430;2022-11-15T04:09:58;13.60;99.90
23568;DHT22;11962;50.838;4.430;2022-11-15T04:12:30;13.60;99.90
23568;DHT22;11962;50.838;4.430;2022-11-15T04:15:06;13.60;99.90
23568;DHT22;11962;50.838;4.430;2022-11-15T04:17:36;13.60;99.90
23568;DHT22;11962;50.838;4.430;2022-11-15T04:20:10;13.60;99.90
23568;DHT22;11962;50.838;4.430;2022-11-15T04:22:59;13.50;99.90
23568;DHT22;11962;50.838;4.430;2022-11-15T04:25:43;13.50;99.90
23568;DHT22;11962;50.838;4.430;2022-11-15T04:28:09;13.50;99.90
23568;DHT22;11962;50.838;4.430;2022-11-15T04:30:35;13.40;99.90
23568;DHT22;11962;50.838;4.430;2022-11-15T04:33:01;13.40;99.90
23568;DHT22;11962;50.838;4.430;2022-11-15T04:35:27;13.40;99.90
23568;DHT22;11962;50.838;4.430;2022-11-15T04:37:53;13.50;99.90
23568;DHT22;11962;50.838;4.430;2022-11-15T04:40:18;13.40;99.90
23568;DHT22;11962;50.838;4.430;2022-11-15T04:42:44;13.40;99.90
23568;DHT22;11962;50.838;4.430;2022-11-15T04:45:10;13.30;99.90
23568;DHT22;11962;50.838;4.430;2022-11-15T04:47:35;13.30;99.90
23568;DHT22;11962;50.838;4.430;2022-11-15T04:50:04;13.20;99.90
23568;DHT22;11962;50.838;4.430;2022-11-15T04:52:30;13.20;99.90
23568;DHT22;11962;50.838;4.430;2022-11-15T04:54:55;13.20;99.90
23568;DHT22;11962;50.838;4.430;2022-11-15T04:57:21;13.10;99.90
23568;DHT22;11962;50.838;4.430;2022-11-15T04:59:46;13.10;99.90
23568;DHT22;11962;50.838;4.430;2022-11-15T05:02:12;13.10;99.90
23568;DHT22;11962;50.838;4.430;2022-11-15T05:04:38;13.10;99.90
23568;DHT22;11962;50.838;4.430;2022-11-15T05:07:04;13.00;99.90
23568;DHT22;11962;50.838;4.430;2022-11-15T05:09:29;13.00;99.90
23568;DHT22;11962;50.838;4.430;2022-11-15T05:11:55;13.00;99.90
23568;DHT22;11962;50.838;4.430;2022-11-15T05:14:21;13.00;99.90
23568;DHT22;11962;50.838;4.430;2022-11-15T05:16:46;12.90;99.90
23568;DHT22;11962;50.838;4.430;2022-11-15T05:19:12;12.80;99.90
23568;DHT22;11962;50.838;4.430;2022-11-15T05:21:38;12.80;99.90
23568;DHT22;11962;50.838;4.430;2022-11-15T05:24:03;12.80;99.90
23568;DHT22;11962;50.838;4.430;2022-11-15T05:26:30;12.70;99.90
23568;DHT22;11962;50.838;4.430;2022-11-15T05:28:57;12.80;99.90
23568;DHT22;11962;50.838;4.430;2022-11-15T05:31:23;12.70;99.90
23568;DHT22;11962;50.838;4.430;2022-11-15T05:33:50;12.70;99.90
23568;DHT22;11962;50.838;4.430;2022-11-15T05:36:43;12.60;99.90
23568;DHT22;11962;50.838;4.430;2022-11-15T05:39:10;12.60;99.90
23568;DHT22;11962;50.838;4.430;2022-11-15T05:41:51;12.60;99.90
23568;DHT22;11962;50.838;4.430;2022-11-15T05:44:21;12.60;99.90
23568;DHT22;11962;50.838;4.430;2022-11-15T05:46:49;12.60;99.90
23568;DHT22;11962;50.838;4.430;2022-11-15T05:49:19;12.50;99.90
23568;DHT22;11962;50.838;4.430;2022-11-15T05:51:46;12.50;99.90
23568;DHT22;11962;50.838;4.430;2022-11-15T05:54:12;12.50;99.90
23568;DHT22;11962;50.838;4.430;2022-11-15T05:56:39;12.40;99.90
23568;DHT22;11962;50.838;4.430;2022-11-15T05:59:05;12.40;99.90
23568;DHT22;11962;50.838;4.430;2022-11-15T06:01:31;12.30;99.90
23568;DHT22;11962;50.838;4.430;2022-11-15T06:03:56;12.30;99.90
23568;DHT22;11962;50.838;4.430;2022-11-15T06:06:22;12.30;99.90
23568;DHT22;11962;50.838;4.430;2022-11-15T06:08:48;12.40;99.90
23568;DHT22;11962;50.838;4.430;2022-11-15T06:11:13;12.40;99.90
23568;DHT22;11962;50.838;4.430;2022-11-15T06:13:39;12.30;99.90
23568;DHT22;11962;50.838;4.430;2022-11-15T06:16:05;12.30;99.90
23568;DHT22;11962;50.838;4.430;2022-11-15T06:18:34;12.20;99.90
23568;DHT22;11962;50.838;4.430;2022-11-15T06:21:00;12.20;99.90
23568;DHT22;11962;50.838;4.430;2022-11-15T06:23:27;12.20;99.90
23568;DHT22;11962;50.838;4.430;2022-11-15T06:25:52;12.10;99.90
23568;DHT22;11962;50.838;4.430;2022-11-15T06:28:18;12.00;99.90
23568;DHT22;11962;50.838;4.430;2022-11-15T06:30:44;12.00;99.90
23568;DHT22;11962;50.838;4.430;2022-11-15T06:33:09;12.00;99.90
23568;DHT22;11962;50.838;4.430;2022-11-15T06:35:35;11.90;99.90
23568;DHT22;11962;50.838;4.430;2022-11-15T06:38:03;11.90;99.90
23568;DHT22;11962;50.838;4.430;2022-11-15T06:40:29;11.80;99.90
23568;DHT22;11962;50.838;4.430;2022-11-15T06:42:58;11.80;99.90
23568;DHT22;11962;50.838;4.430;2022-11-15T06:45:25;11.80;99.90
23568;DHT22;11962;50.838;4.430;2022-11-15T06:47:50;11.80;99.90
23568;DHT22;11962;50.838;4.430;2022-11-15T06:50:16;11.70;99.90
23568;DHT22;11962;50.838;4.430;2022-11-15T06:52:41;11.70;99.90
23568;DHT22;11962;50.838;4.430;2022-11-15T06:55:08;11.60;99.90
23568;DHT22;11962;50.838;4.430;2022-11-15T06:57:33;11.60;99.90
23568;DHT22;11962;50.838;4.430;2022-11-15T06:59:59;11.60;99.90
23568;DHT22;11962;50.838;4.430;2022-11-15T07:02:25;11.60;99.90
23568;DHT22;11962;50.838;4.430;2022-11-15T07:04:50;11.50;99.90
23568;DHT22;11962;50.838;4.430;2022-11-15T07:07:16;11.50;99.90
23568;DHT22;11962;50.838;4.430;2022-11-15T07:09:41;11.50;99.90
23568;DHT22;11962;50.838;4.430;2022-11-15T07:12:07;11.50;99.90
23568;DHT22;11962;50.838;4.430;2022-11-15T07:14:33;11.50;99.90
23568;DHT22;11962;50.838;4.430;2022-11-15T07:16:58;11.50;99.90
23568;DHT22;11962;50.838;4.430;2022-11-15T07:19:24;11.50;99.90
23568;DHT22;11962;50.838;4.430;2022-11-15T07:21:49;11.50;99.90
23568;DHT22;11962;50.838;4.430;2022-11-15T07:24:15;11.50;99.90
23568;DHT22;11962;50.838;4.430;2022-11-15T07:26:40;11.50;99.90
23568;DHT22;11962;50.838;4.430;2022-11-15T07:29:06;11.60;99.90
23568;DHT22;11962;50.838;4.430;2022-11-15T07:31:32;11.60;99.90
23568;DHT22;11962;50.838;4.430;2022-11-15T07:33:57;11.70;99.90
23568;DHT22;11962;50.838;4.430;2022-11-15T07:36:23;11.70;99.90
23568;DHT22;11962;50.838;4.430;2022-11-15T07:38:48;11.70;99.90
23568;DHT22;11962;50.838;4.430;2022-11-15T07:41:14;11.80;99.90
23568;DHT22;11962;50.838;4.430;2022-11-15T07:43:40;11.80;99.90
23568;DHT22;11962;50.838;4.430;2022-11-15T07:46:07;11.90;99.90
23568;DHT22;11962;50.838;4.430;2022-11-15T07:48:35;11.90;99.90
23568;DHT22;11962;50.838;4.430;2022-11-15T07:51:01;12.00;99.90
23568;DHT22;11962;50.838;4.430;2022-11-15T07:53:27;12.00;99.90
23568;DHT22;11962;50.838;4.430;2022-11-15T07:55:53;12.00;99.90
23568;DHT22;11962;50.838;4.430;2022-11-15T07:58:19;12.00;99.90
23568;DHT22;11962;50.838;4.430;2022-11-15T08:00:45;12.10;99.90
23568;DHT22;11962;50.838;4.430;2022-11-15T08:03:14;12.10;99.90
23568;DHT22;11962;50.838;4.430;2022-11-15T08:05:41;12.20;99.90
23568;DHT22;11962;50.838;4.430;2022-11-15T08:08:08;12.10;99.90
23568;DHT22;11962;50.838;4.430;2022-11-15T08:10:34;12.10;99.90
23568;DHT22;11962;50.838;4.430;2022-11-15T08:13:11;12.10;99.90
23568;DHT22;11962;50.838;4.430;2022-11-15T08:15:37;12.10;99.90
23568;DHT22;11962;50.838;4.430;2022-11-15T08:18:05;12.20;99.90
23568;DHT22;11962;50.838;4.430;2022-11-15T08:20:31;12.20;99.90
23568;DHT22;11962;50.838;4.430;2022-11-15T08:22:58;12.40;99.90
23568;DHT22;11962;50.838;4.430;2022-11-15T08:25:25;12.50;99.90
23568;DHT22;11962;50.838;4.430;2022-11-15T08:27:58;12.60;99.90
23568;DHT22;11962;50.838;4.430;2022-11-15T08:30:24;12.70;99.90
23568;DHT22;11962;50.838;4.430;2022-11-15T08:32:51;12.80;99.90
23568;DHT22;11962;50.838;4.430;2022-11-15T08:35:18;12.90;99.90
23568;DHT22;11962;50.838;4.430;2022-11-15T08:37:44;12.90;99.90
23568;DHT22;11962;50.838;4.430;2022-11-15T08:40:10;13.10;99.90
23568;DHT22;11962;50.838;4.430;2022-11-15T08:42:36;13.00;99.90
23568;DHT22;11962;50.838;4.430;2022-11-15T08:45:02;13.40;99.90
23568;DHT22;11962;50.838;4.430;2022-11-15T08:47:28;13.40;99.90
23568;DHT22;11962;50.838;4.430;2022-11-15T08:49:54;13.40;99.90
23568;DHT22;11962;50.838;4.430;2022-11-15T08:52:19;13.30;99.90
23568;DHT22;11962;50.838;4.430;2022-11-15T08:54:45;13.20;99.90
23568;DHT22;11962;50.838;4.430;2022-11-15T08:57:11;13.20;99.90
23568;DHT22;11962;50.838;4.430;2022-11-15T08:59:37;13.40;99.90
23568;DHT22;11962;50.838;4.430;2022-11-15T09:02:03;13.50;99.90
23568;DHT22;11962;50.838;4.430;2022-11-15T09:04:29;13.60;99.90
23568;DHT22;11962;50.838;4.430;2022-11-15T09:06:54;13.70;99.90
23568;DHT22;11962;50.838;4.430;2022-11-15T09:09:20;14.40;99.90
23568;DHT22;11962;50.838;4.430;2022-11-15T09:11:46;16.20;99.90
23568;DHT22;11962;50.838;4.430;2022-11-15T09:14:12;18.10;99.90
23568;DHT22;11962;50.838;4.430;2022-11-15T09:16:38;18.60;99.90
23568;DHT22;11962;50.838;4.430;2022-11-15T09:19:04;19.60;99.90
23568;DHT22;11962;50.838;4.430;2022-11-15T09:21:30;20.80;99.90
23568;DHT22;11962;50.838;4.430;2022-11-15T09:23:59;21.80;99.90
23568;DHT22;11962;50.838;4.430;2022-11-15T09:26:24;22.60;97.80
23568;DHT22;11962;50.838;4.430;2022-11-15T09:28:50;22.80;96.20
23568;DHT22;11962;50.838;4.430;2022-11-15T09:31:16;23.70;92.60
23568;DHT22;11962;50.838;4.430;2022-11-15T09:33:45;24.60;90.30
23568;DHT22;11962;50.838;4.430;2022-11-15T09:36:11;25.60;83.00
23568;DHT22;11962;50.838;4.430;2022-11-15T09:38:37;25.90;78.30
23568;DHT22;11962;50.838;4.430;2022-11-15T09:43:54;25.70;73.00
23568;DHT22;11962;50.838;4.430;2022-11-15T09:49:26;26.00;71.50
23568;DHT22;11962;50.838;4.430;2022-11-15T09:51:54;25.80;70.30
23568;DHT22;11962;50.838;4.430;2022-11-15T09:56:49;26.60;69.40
23568;DHT22;11962;50.838;4.430;2022-11-15T10:04:57;25.70;68.00
23568;DHT22;11962;50.838;4.430;2022-11-15T10:07:50;24.80;68.80
23568;DHT22;11962;50.838;4.430;2022-11-15T10:10:34;24.90;70.00
23568;DHT22;11962;50.838;4.430;2022-11-15T10:13:00;25.20;69.10
23568;DHT22;11962;50.838;4.430;2022-11-15T10:15:26;25.00;68.90
23568;DHT22;11962;50.838;4.430;2022-11-15T10:20:46;23.90;71.40
23568;DHT22;11962;50.838;4.430;2022-11-15T10:23:15;23.80;71.70
23568;DHT22;11962;50.838;4.430;2022-11-15T10:25:41;23.10;72.40
23568;DHT22;11962;50.838;4.430;2022-11-15T10:28:16;22.30;75.00
23568;DHT22;11962;50.838;4.430;2022-11-15T10:30:51;22.30;76.20
23568;DHT22;11962;50.838;4.430;2022-11-15T10:33:22;22.60;75.70
23568;DHT22;11962;50.838;4.430;2022-11-15T10:43:42;23.50;73.40
23568;DHT22;11962;50.838;4.430;2022-11-15T10:46:26;22.90;73.10
23568;DHT22;11962;50.838;4.430;2022-11-15T10:48:52;21.30;77.00
23568;DHT22;11962;50.838;4.430;2022-11-15T10:51:26;20.30;81.30
23568;DHT22;11962;50.838;4.430;2022-11-15T10:53:55;19.50;84.10
23568;DHT22;11962;50.838;4.430;2022-11-15T10:56:22;18.80;86.80
23568;DHT22;11962;50.838;4.430;2022-11-15T10:58:57;18.30;89.10
23568;DHT22;11962;50.838;4.430;2022-11-15T11:01:27;18.10;90.40
23568;DHT22;11962;50.838;4.430;2022-11-15T11:04:06;18.10;90.70
23568;DHT22;11962;50.838;4.430;2022-11-15T11:06:51;18.20;90.80
23568;DHT22;11962;50.838;4.430;2022-11-15T11:09:33;18.60;90.60
23568;DHT22;11962;50.838;4.430;2022-11-15T11:12:00;18.50;90.40
23568;DHT22;11962;50.838;4.430;2022-11-15T11:14:28;18.30;90.70
23568;DHT22;11962;50.838;4.430;2022-11-15T11:17:17;18.10;91.30
23568;DHT22;11962;50.838;4.430;2022-11-15T11:22:52;17.50;92.30
23568;DHT22;11962;50.838;4.430;2022-11-15T11:30:54;18.00;92.30
23568;DHT22;11962;50.838;4.430;2022-11-15T11:33:34;18.40;91.80
23568;DHT22;11962;50.838;4.430;2022-11-15T11:45:17;18.40;91.00
23568;DHT22;11962;50.838;4.430;2022-11-15T11:47:53;18.00;91.70
23568;DHT22;11962;50.838;4.430;2022-11-15T11:50:26;17.80;92.30
23568;DHT22;11962;50.838;4.430;2022-11-15T11:55:38;17.50;92.90
23568;DHT22;11962;50.838;4.430;2022-11-15T11:58:12;17.20;93.30
23568;DHT22;11962;50.838;4.430;2022-11-15T12:00:46;17.00;94.00
23568;DHT22;11962;50.838;4.430;2022-11-15T12:05:48;16.90;94.60
23568;DHT22;11962;50.838;4.430;2022-11-15T12:08:45;17.00;94.90
23568;DHT22;11962;50.838;4.430;2022-11-15T12:11:21;17.00;94.90
23568;DHT22;11962;50.838;4.430;2022-11-15T12:13:50;17.00;95.20
23568;DHT22;11962;50.838;4.430;2022-11-15T12:16:26;16.80;95.50
23568;DHT22;11962;50.838;4.430;2022-11-15T12:18:54;16.70;95.90
23568;DHT22;11962;50.838;4.430;2022-11-15T12:24:32;16.60;96.60
23568;DHT22;11962;50.838;4.430;2022-11-15T12:30:16;16.50;97.30
23568;DHT22;11962;50.838;4.430;2022-11-15T12:32:58;16.20;98.00
23568;DHT22;11962;50.838;4.430;2022-11-15T12:35:28;16.30;98.30
23568;DHT22;11962;50.838;4.430;2022-11-15T12:37:56;16.20;98.70
23568;DHT22;11962;50.838;4.430;2022-11-15T12:40:29;16.10;99.10
23568;DHT22;11962;50.838;4.430;2022-11-15T12:58:54;16.00;99.90
23568;DHT22;11962;50.838;4.430;2022-11-15T13:07:03;16.30;99.90
23568;DHT22;11962;50.838;4.430;2022-11-15T13:11:57;16.60;99.90
23568;DHT22;11962;50.838;4.430;2022-11-15T13:14:41;16.70;99.90
23568;DHT22;11962;50.838;4.430;2022-11-15T13:22:20;16.30;99.90
23568;DHT22;11962;50.838;4.430;2022-11-15T13:25:19;16.30;99.90
23568;DHT22;11962;50.838;4.430;2022-11-15T13:27:50;16.40;99.90
23568;DHT22;11962;50.838;4.430;2022-11-15T13:30:20;16.20;99.90
23568;DHT22;11962;50.838;4.430;2022-11-15T13:32:46;16.10;99.90
23568;DHT22;11962;50.838;4.430;2022-11-15T13:35:29;16.10;99.90
23568;DHT22;11962;50.838;4.430;2022-11-15T13:37:56;16.00;99.90
23568;DHT22;11962;50.838;4.430;2022-11-15T13:40:34;15.90;99.90
23568;DHT22;11962;50.838;4.430;2022-11-15T13:43:17;16.00;99.90
23568;DHT22;11962;50.838;4.430;2022-11-15T13:45:43;15.90;99.90
23568;DHT22;11962;50.838;4.430;2022-11-15T13:48:09;15.80;99.90
23568;DHT22;11962;50.838;4.430;2022-11-15T13:50:37;15.80;99.90
23568;DHT22;11962;50.838;4.430;2022-11-15T13:53:05;15.80;99.90
23568;DHT22;11962;50.838;4.430;2022-11-15T13:55:31;15.90;99.90
23568;DHT22;11962;50.838;4.430;2022-11-15T13:58:00;15.80;99.90
23568;DHT22;11962;50.838;4.430;2022-11-15T14:00:40;15.80;99.90
23568;DHT22;11962;50.838;4.430;2022-11-15T14:03:27;15.80;99.90
23568;DHT22;11962;50.838;4.430;2022-11-15T14:06:11;15.80;99.90
23568;DHT22;11962;50.838;4.430;2022-11-15T14:08:39;15.70;99.90
23568;DHT22;11962;50.838;4.430;2022-11-15T14:11:18;15.70;99.90
23568;DHT22;11962;50.838;4.430;2022-11-15T14:16:45;15.70;99.90
23568;DHT22;11962;50.838;4.430;2022-11-15T14:19:13;15.70;99.90
23568;DHT22;11962;50.838;4.430;2022-11-15T14:22:14;15.70;99.90
23568;DHT22;11962;50.838;4.430;2022-11-15T14:24:45;15.60;99.90
23568;DHT22;11962;50.838;4.430;2022-11-15T14:27:27;15.50;99.90
23568;DHT22;11962;50.838;4.430;2022-11-15T14:29:54;15.50;99.90
23568;DHT22;11962;50.838;4.430;2022-11-15T14:32:21;15.50;99.90
23568;DHT22;11962;50.838;4.430;2022-11-15T14:35:17;15.50;99.90
23568;DHT22;11962;50.838;4.430;2022-11-15T14:37:44;15.50;99.90
23568;DHT22;11962;50.838;4.430;2022-11-15T14:40:13;15.40;99.90
23568;DHT22;11962;50.838;4.430;2022-11-15T14:42:39;15.40;99.90
23568;DHT22;11962;50.838;4.430;2022-11-15T14:45:16;15.20;99.90
23568;DHT22;11962;50.838;4.430;2022-11-15T14:47:42;15.10;99.90
23568;DHT22;11962;50.838;4.430;2022-11-15T14:50:16;15.10;99.90
23568;DHT22;11962;50.838;4.430;2022-11-15T14:52:42;14.90;99.90
23568;DHT22;11962;50.838;4.430;2022-11-15T14:55:32;14.90;99.90
23568;DHT22;11962;50.838;4.430;2022-11-15T14:58:01;14.90;99.90
23568;DHT22;11962;50.838;4.430;2022-11-15T15:00:29;14.90;99.90
23568;DHT22;11962;50.838;4.430;2022-11-15T15:02:55;14.90;99.90
23568;DHT22;11962;50.838;4.430;2022-11-15T15:05:22;14.90;99.90
23568;DHT22;11962;50.838;4.430;2022-11-15T15:07:48;14.90;99.90
23568;DHT22;11962;50.838;4.430;2022-11-15T15:10:15;14.90;99.90
23568;DHT22;11962;50.838;4.430;2022-11-15T15:12:41;14.80;99.90
23568;DHT22;11962;50.838;4.430;2022-11-15T15:15:34;14.80;99.90
23568;DHT22;11962;50.838;4.430;2022-11-15T15:18:01;14.70;99.90
23568;DHT22;11962;50.838;4.430;2022-11-15T15:20:27;14.70;99.90
23568;DHT22;11962;50.838;4.430;2022-11-15T15:22:54;14.60;99.90
23568;DHT22;11962;50.838;4.430;2022-11-15T15:25:27;14.50;99.90
23568;DHT22;11962;50.838;4.430;2022-11-15T15:27:54;14.40;99.90
23568;DHT22;11962;50.838;4.430;2022-11-15T15:30:21;14.40;99.90
23568;DHT22;11962;50.838;4.430;2022-11-15T15:32:49;14.50;99.90
23568;DHT22;11962;50.838;4.430;2022-11-15T15:35:16;14.50;99.90
23568;DHT22;11962;50.838;4.430;2022-11-15T15:37:43;14.40;99.90
23568;DHT22;11962;50.838;4.430;2022-11-15T15:40:20;14.40;99.90
23568;DHT22;11962;50.838;4.430;2022-11-15T15:42:47;14.40;99.90
23568;DHT22;11962;50.838;4.430;2022-11-15T15:45:17;14.30;99.90
23568;DHT22;11962;50.838;4.430;2022-11-15T15:47:43;14.30;99.90
23568;DHT22;11962;50.838;4.430;2022-11-15T15:50:29;14.30;99.90
23568;DHT22;11962;50.838;4.430;2022-11-15T15:52:58;14.20;99.90
23568;DHT22;11962;50.838;4.430;2022-11-15T15:55:24;14.10;99.90
23568;DHT22;11962;50.838;4.430;2022-11-15T15:57:50;14.10;99.90
23568;DHT22;11962;50.838;4.430;2022-11-15T16:00:16;14.00;99.90
23568;DHT22;11962;50.838;4.430;2022-11-15T16:02:42;14.00;99.90
23568;DHT22;11962;50.838;4.430;2022-11-15T16:05:09;14.00;99.90
23568;DHT22;11962;50.838;4.430;2022-11-15T16:07:35;13.90;99.90
23568;DHT22;11962;50.838;4.430;2022-11-15T16:10:02;13.90;99.90
23568;DHT22;11962;50.838;4.430;2022-11-15T16:12:33;13.90;99.90
23568;DHT22;11962;50.838;4.430;2022-11-15T16:14:59;13.90;99.90
23568;DHT22;11962;50.838;4.430;2022-11-15T16:17:28;13.80;99.90
23568;DHT22;11962;50.838;4.430;2022-11-15T16:19:55;13.90;99.90
23568;DHT22;11962;50.838;4.430;2022-11-15T16:22:21;13.80;99.90
23568;DHT22;11962;50.838;4.430;2022-11-15T16:24:47;13.80;99.90
23568;DHT22;11962;50.838;4.430;2022-11-15T16:27:20;13.70;99.90
23568;DHT22;11962;50.838;4.430;2022-11-15T16:29:47;13.60;99.90
23568;DHT22;11962;50.838;4.430;2022-11-15T16:32:15;13.60;99.90
23568;DHT22;11962;50.838;4.430;2022-11-15T16:34:41;13.50;99.90
23568;DHT22;11962;50.838;4.430;2022-11-15T16:37:23;13.60;99.90
23568;DHT22;11962;50.838;4.430;2022-11-15T16:39:49;13.60;99.90
23568;DHT22;11962;50.838;4.430;2022-11-15T16:42:14;13.60;99.90
23568;DHT22;11962;50.838;4.430;2022-11-15T16:44:40;13.60;99.90
23568;DHT22;11962;50.838;4.430;2022-11-15T16:47:32;13.70;99.90
23568;DHT22;11962;50.838;4.430;2022-11-15T16:49:58;13.60;99.90
23568;DHT22;11962;50.838;4.430;2022-11-15T16:52:23;13.70;99.90
23568;DHT22;11962;50.838;4.430;2022-11-15T16:54:49;13.70;99.90
23568;DHT22;11962;50.838;4.430;2022-11-15T16:57:14;13.70;99.90
23568;DHT22;11962;50.838;4.430;2022-11-15T16:59:40;13.70;99.90
23568;DHT22;11962;50.838;4.430;2022-11-15T17:02:12;13.70;99.90
23568;DHT22;11962;50.838;4.430;2022-11-15T17:04:38;13.70;99.90
23568;DHT22;11962;50.838;4.430;2022-11-15T17:07:04;13.60;99.90
23568;DHT22;11962;50.838;4.430;2022-11-15T17:09:29;13.60;99.90
23568;DHT22;11962;50.838;4.430;2022-11-15T17:11:58;13.60;99.90
23568;DHT22;11962;50.838;4.430;2022-11-15T17:14:24;13.70;99.90
23568;DHT22;11962;50.838;4.430;2022-11-15T17:16:49;13.70;99.90
23568;DHT22;11962;50.838;4.430;2022-11-15T17:19:17;13.70;99.90
23568;DHT22;11962;50.838;4.430;2022-11-15T17:21:44;13.70;99.90
23568;DHT22;11962;50.838;4.430;2022-11-15T17:24:10;13.80;99.90
23568;DHT22;11962;50.838;4.430;2022-11-15T17:26:36;13.80;99.90
23568;DHT22;11962;50.838;4.430;2022-11-15T17:29:03;13.80;99.90
23568;DHT22;11962;50.838;4.430;2022-11-15T17:31:32;13.80;99.90